sensor_id;sensor_type;location;lat;lon;timestamp;P1;durP1;ratioP1;P2;durP2;ratioP2
52414;SDS011;38340;52.964;6.086;2023-04-24T00:01:43;8.10;;;6.97;;
52414;SDS011;38340;52.964;6.086;2023-04-24T00:04:09;7.43;;;6.25;;
52414;SDS011;38340;52.964;6.086;2023-04-24T00:06:36;6.53;;;5.93;;
52414;SDS011;38340;52.964;6.086;2023-04-24T00:09:05;7.18;;;5.97;;
52414;SDS011;38340;52.964;6.086;2023-04-24T00:11:31;5.88;;;5.22;;
52414;SDS011;38340;52.964;6.086;2023-04-24T00:13:56;6.25;;;5.40;;
52414;SDS011;38340;52.964;6.086;2023-04-24T00:16:22;4.85;;;4.45;;
52414;SDS011;38340;52.964;6.086;2023-04-24T00:18:48;5.25;;;4.72;;
52414;SDS011;38340;52.964;6.086;2023-04-24T00:21:14;4.70;;;4.00;;
52414;SDS011;38340;52.964;6.086;2023-04-24T00:23:43;6.90;;;4.45;;
52414;SDS011;38340;52.964;6.086;2023-04-24T00:26:09;4.70;;;3.90;;
52414;SDS011;38340;52.964;6.086;2023-04-24T00:28:35;6.65;;;4.28;;
52414;SDS011;38340;52.964;6.086;2023-04-24T00:31:01;4.60;;;4.15;;
52414;SDS011;38340;52.964;6.086;2023-04-24T00:33:26;3.90;;;3.60;;
52414;SDS011;38340;52.964;6.086;2023-04-24T00:35:52;4.22;;;3.83;;
52414;SDS011;38340;52.964;6.086;2023-04-24T00:38:18;5.55;;;3.80;;
52414;SDS011;38340;52.964;6.086;2023-04-24T00:40:44;4.50;;;4.10;;
52414;SDS011;38340;52.964;6.086;2023-04-24T00:43:10;4.38;;;3.97;;
52414;SDS011;38340;52.964;6.086;2023-04-24T00:45:37;4.70;;;4.30;;
52414;SDS011;38340;52.964;6.086;2023-04-24T00:48:02;4.30;;;3.90;;
52414;SDS011;38340;52.964;6.086;2023-04-24T00:50:29;3.80;;;3.50;;
52414;SDS011;38340;52.964;6.086;2023-04-24T00:52:55;4.57;;;4.13;;
52414;SDS011;38340;52.964;6.086;2023-04-24T00:55:21;4.40;;;4.00;;
52414;SDS011;38340;52.964;6.086;2023-04-24T00:57:47;8.60;;;4.30;;
52414;SDS011;38340;52.964;6.086;2023-04-24T01:00:14;4.65;;;4.25;;
52414;SDS011;38340;52.964;6.086;2023-04-24T01:02:41;4.38;;;3.97;;
52414;SDS011;38340;52.964;6.086;2023-04-24T01:05:10;4.80;;;4.40;;
52414;SDS011;38340;52.964;6.086;2023-04-24T01:07:37;5.30;;;4.50;;
52414;SDS011;38340;52.964;6.086;2023-04-24T01:10:06;4.68;;;4.28;;
52414;SDS011;38340;52.964;6.086;2023-04-24T01:12:33;6.07;;;4.60;;
52414;SDS011;38340;52.964;6.086;2023-04-24T01:14:59;4.60;;;4.20;;
52414;SDS011;38340;52.964;6.086;2023-04-24T01:17:24;5.38;;;4.65;;
52414;SDS011;38340;52.964;6.086;2023-04-24T01:19:50;5.03;;;4.45;;
52414;SDS011;38340;52.964;6.086;2023-04-24T01:22:18;5.38;;;4.88;;
52414;SDS011;38340;52.964;6.086;2023-04-24T01:24:45;4.78;;;4.35;;
52414;SDS011;38340;52.964;6.086;2023-04-24T01:27:11;5.47;;;4.97;;
52414;SDS011;38340;52.964;6.086;2023-04-24T01:29:37;5.78;;;5.28;;
52414;SDS011;38340;52.964;6.086;2023-04-24T01:32:04;5.82;;;5.32;;
52414;SDS011;38340;52.964;6.086;2023-04-24T01:34:30;5.80;;;5.30;;
52414;SDS011;38340;52.964;6.086;2023-04-24T01:36:56;10.70;;;5.40;;
52414;SDS011;38340;52.964;6.086;2023-04-24T01:39:22;6.97;;;5.97;;
52414;SDS011;38340;52.964;6.086;2023-04-24T01:41:51;6.47;;;5.78;;
52414;SDS011;38340;52.964;6.086;2023-04-24T01:44:17;7.60;;;6.07;;
52414;SDS011;38340;52.964;6.086;2023-04-24T01:46:43;7.22;;;6.53;;
52414;SDS011;38340;52.964;6.086;2023-04-24T01:49:09;9.10;;;7.07;;
52414;SDS011;38340;52.964;6.086;2023-04-24T01:51:36;7.75;;;7.00;;
52414;SDS011;38340;52.964;6.086;2023-04-24T01:54:02;7.90;;;7.10;;
52414;SDS011;38340;52.964;6.086;2023-04-24T01:56:31;8.30;;;7.50;;
52414;SDS011;38340;52.964;6.086;2023-04-24T01:58:58;9.95;;;7.28;;
52414;SDS011;38340;52.964;6.086;2023-04-24T02:01:25;9.13;;;8.10;;
52414;SDS011;38340;52.964;6.086;2023-04-24T02:03:51;9.73;;;8.18;;
52414;SDS011;38340;52.964;6.086;2023-04-24T02:06:17;10.07;;;8.55;;
52414;SDS011;38340;52.964;6.086;2023-04-24T02:08:42;9.82;;;8.82;;
52414;SDS011;38340;52.964;6.086;2023-04-24T02:11:08;10.45;;;8.80;;
52414;SDS011;38340;52.964;6.086;2023-04-24T02:13:34;11.07;;;9.10;;
52414;SDS011;38340;52.964;6.086;2023-04-24T02:16:00;12.35;;;10.05;;
52414;SDS011;38340;52.964;6.086;2023-04-24T02:18:26;10.90;;;9.70;;
52414;SDS011;38340;52.964;6.086;2023-04-24T02:20:51;13.05;;;10.88;;
52414;SDS011;38340;52.964;6.086;2023-04-24T02:23:17;11.95;;;10.60;;
52414;SDS011;38340;52.964;6.086;2023-04-24T02:25:43;18.90;;;11.73;;
52414;SDS011;38340;52.964;6.086;2023-04-24T02:28:08;13.93;;;11.57;;
52414;SDS011;38340;52.964;6.086;2023-04-24T02:30:34;16.80;;;11.48;;
52414;SDS011;38340;52.964;6.086;2023-04-24T02:33:00;14.65;;;11.63;;
52414;SDS011;38340;52.964;6.086;2023-04-24T02:35:26;15.63;;;12.32;;
52414;SDS011;38340;52.964;6.086;2023-04-24T02:37:51;17.42;;;13.32;;
52414;SDS011;38340;52.964;6.086;2023-04-24T02:40:17;15.18;;;12.15;;
52414;SDS011;38340;52.964;6.086;2023-04-24T02:42:43;18.88;;;13.30;;
52414;SDS011;38340;52.964;6.086;2023-04-24T02:45:08;16.88;;;13.27;;
52414;SDS011;38340;52.964;6.086;2023-04-24T02:47:35;17.90;;;13.30;;
52414;SDS011;38340;52.964;6.086;2023-04-24T02:50:01;16.45;;;12.88;;
52414;SDS011;38340;52.964;6.086;2023-04-24T02:52:27;16.90;;;13.57;;
52414;SDS011;38340;52.964;6.086;2023-04-24T02:54:53;19.23;;;14.88;;
52414;SDS011;38340;52.964;6.086;2023-04-24T02:57:19;21.55;;;15.23;;
52414;SDS011;38340;52.964;6.086;2023-04-24T02:59:45;18.35;;;14.30;;
52414;SDS011;38340;52.964;6.086;2023-04-24T03:02:10;18.88;;;14.38;;
52414;SDS011;38340;52.964;6.086;2023-04-24T03:04:36;19.60;;;15.07;;
52414;SDS011;38340;52.964;6.086;2023-04-24T03:07:02;21.35;;;14.23;;
52414;SDS011;38340;52.964;6.086;2023-04-24T03:09:27;19.45;;;15.30;;
52414;SDS011;38340;52.964;6.086;2023-04-24T03:11:53;18.42;;;14.50;;
52414;SDS011;38340;52.964;6.086;2023-04-24T03:14:19;20.17;;;15.63;;
52414;SDS011;38340;52.964;6.086;2023-04-24T03:16:44;19.30;;;15.60;;
52414;SDS011;38340;52.964;6.086;2023-04-24T03:19:10;23.13;;;16.48;;
52414;SDS011;38340;52.964;6.086;2023-04-24T03:21:36;21.58;;;15.18;;
52414;SDS011;38340;52.964;6.086;2023-04-24T03:24:05;19.13;;;15.65;;
52414;SDS011;38340;52.964;6.086;2023-04-24T03:26:34;21.17;;;16.20;;
52414;SDS011;38340;52.964;6.086;2023-04-24T03:29:00;18.98;;;15.45;;
52414;SDS011;38340;52.964;6.086;2023-04-24T03:31:26;20.23;;;16.63;;
52414;SDS011;38340;52.964;6.086;2023-04-24T03:33:52;19.67;;;16.05;;
52414;SDS011;38340;52.964;6.086;2023-04-24T03:36:18;21.55;;;16.00;;
52414;SDS011;38340;52.964;6.086;2023-04-24T03:38:44;19.52;;;14.85;;
52414;SDS011;38340;52.964;6.086;2023-04-24T03:41:10;20.90;;;16.10;;
52414;SDS011;38340;52.964;6.086;2023-04-24T03:43:37;26.15;;;16.92;;
52414;SDS011;38340;52.964;6.086;2023-04-24T03:46:03;21.50;;;16.52;;
52414;SDS011;38340;52.964;6.086;2023-04-24T03:48:28;22.10;;;16.23;;
52414;SDS011;38340;52.964;6.086;2023-04-24T03:50:54;20.90;;;16.13;;
52414;SDS011;38340;52.964;6.086;2023-04-24T03:53:20;25.13;;;17.83;;
52414;SDS011;38340;52.964;6.086;2023-04-24T03:55:46;16.75;;;12.38;;
52414;SDS011;38340;52.964;6.086;2023-04-24T03:58:11;7.93;;;6.50;;
52414;SDS011;38340;52.964;6.086;2023-04-24T04:00:39;8.35;;;6.05;;
52414;SDS011;38340;52.964;6.086;2023-04-24T04:03:05;6.60;;;4.68;;
52414;SDS011;38340;52.964;6.086;2023-04-24T04:05:31;5.68;;;4.82;;
52414;SDS011;38340;52.964;6.086;2023-04-24T04:07:57;5.82;;;4.78;;
52414;SDS011;38340;52.964;6.086;2023-04-24T04:10:22;5.88;;;4.68;;
52414;SDS011;38340;52.964;6.086;2023-04-24T04:12:48;5.03;;;4.50;;
52414;SDS011;38340;52.964;6.086;2023-04-24T04:15:14;5.35;;;4.57;;
52414;SDS011;38340;52.964;6.086;2023-04-24T04:17:40;5.38;;;4.88;;
52414;SDS011;38340;52.964;6.086;2023-04-24T04:20:06;6.72;;;4.75;;
52414;SDS011;38340;52.964;6.086;2023-04-24T04:22:34;7.10;;;5.97;;
52414;SDS011;38340;52.964;6.086;2023-04-24T04:25:00;5.88;;;5.28;;
52414;SDS011;38340;52.964;6.086;2023-04-24T04:27:26;8.35;;;5.80;;
52414;SDS011;38340;52.964;6.086;2023-04-24T04:29:53;8.30;;;7.20;;
52414;SDS011;38340;52.964;6.086;2023-04-24T04:32:21;10.30;;;7.63;;
52414;SDS011;38340;52.964;6.086;2023-04-24T04:34:47;11.10;;;8.57;;
52414;SDS011;38340;52.964;6.086;2023-04-24T04:37:14;11.10;;;8.82;;
52414;SDS011;38340;52.964;6.086;2023-04-24T04:39:40;14.07;;;9.43;;
52414;SDS011;38340;52.964;6.086;2023-04-24T04:42:06;14.57;;;11.07;;
52414;SDS011;38340;52.964;6.086;2023-04-24T04:44:31;28.77;;;12.50;;
52414;SDS011;38340;52.964;6.086;2023-04-24T04:46:57;25.17;;;12.60;;
52414;SDS011;38340;52.964;6.086;2023-04-24T04:49:25;23.65;;;11.88;;
52414;SDS011;38340;52.964;6.086;2023-04-24T04:51:53;21.65;;;12.10;;
52414;SDS011;38340;52.964;6.086;2023-04-24T04:54:19;15.27;;;10.88;;
52414;SDS011;38340;52.964;6.086;2023-04-24T04:56:44;13.38;;;9.85;;
52414;SDS011;38340;52.964;6.086;2023-04-24T04:59:10;11.95;;;9.45;;
52414;SDS011;38340;52.964;6.086;2023-04-24T05:01:36;12.30;;;9.88;;
52414;SDS011;38340;52.964;6.086;2023-04-24T05:04:01;13.20;;;8.98;;
52414;SDS011;38340;52.964;6.086;2023-04-24T05:06:27;12.50;;;8.63;;
52414;SDS011;38340;52.964;6.086;2023-04-24T05:08:53;15.00;;;8.85;;
52414;SDS011;38340;52.964;6.086;2023-04-24T05:11:22;9.38;;;8.07;;
52414;SDS011;38340;52.964;6.086;2023-04-24T05:13:48;10.98;;;7.43;;
52414;SDS011;38340;52.964;6.086;2023-04-24T05:16:13;10.80;;;8.23;;
52414;SDS011;38340;52.964;6.086;2023-04-24T05:18:39;11.43;;;8.10;;
52414;SDS011;38340;52.964;6.086;2023-04-24T05:21:05;8.75;;;7.35;;
52414;SDS011;38340;52.964;6.086;2023-04-24T05:23:31;10.30;;;7.82;;
52414;SDS011;38340;52.964;6.086;2023-04-24T05:25:56;7.57;;;6.40;;
52414;SDS011;38340;52.964;6.086;2023-04-24T05:28:22;11.55;;;7.13;;
52414;SDS011;38340;52.964;6.086;2023-04-24T05:30:48;10.77;;;6.47;;
52414;SDS011;38340;52.964;6.086;2023-04-24T05:33:14;8.90;;;6.47;;
52414;SDS011;38340;52.964;6.086;2023-04-24T05:35:40;7.28;;;5.90;;
52414;SDS011;38340;52.964;6.086;2023-04-24T05:38:11;8.30;;;5.82;;
52414;SDS011;38340;52.964;6.086;2023-04-24T05:40:38;8.63;;;5.93;;
52414;SDS011;38340;52.964;6.086;2023-04-24T05:43:04;8.35;;;6.30;;
52414;SDS011;38340;52.964;6.086;2023-04-24T05:45:30;8.43;;;6.53;;
52414;SDS011;38340;52.964;6.086;2023-04-24T05:47:56;9.90;;;6.35;;
52414;SDS011;38340;52.964;6.086;2023-04-24T05:50:22;8.90;;;7.25;;
52414;SDS011;38340;52.964;6.086;2023-04-24T05:52:48;11.80;;;8.50;;
52414;SDS011;38340;52.964;6.086;2023-04-24T05:55:13;12.13;;;8.13;;
52414;SDS011;38340;52.964;6.086;2023-04-24T05:57:39;15.15;;;9.55;;
52414;SDS011;38340;52.964;6.086;2023-04-24T06:00:05;13.88;;;9.10;;
52414;SDS011;38340;52.964;6.086;2023-04-24T06:02:31;15.68;;;10.02;;
52414;SDS011;38340;52.964;6.086;2023-04-24T06:05:00;12.18;;;8.25;;
52414;SDS011;38340;52.964;6.086;2023-04-24T06:07:26;12.40;;;7.68;;
52414;SDS011;38340;52.964;6.086;2023-04-24T06:09:52;10.13;;;7.30;;
52414;SDS011;38340;52.964;6.086;2023-04-24T06:12:17;8.68;;;6.28;;
52414;SDS011;38340;52.964;6.086;2023-04-24T06:14:43;7.20;;;5.80;;
52414;SDS011;38340;52.964;6.086;2023-04-24T06:17:09;6.65;;;5.38;;
52414;SDS011;38340;52.964;6.086;2023-04-24T06:19:35;10.80;;;6.95;;
52414;SDS011;38340;52.964;6.086;2023-04-24T06:22:01;6.80;;;5.85;;
52414;SDS011;38340;52.964;6.086;2023-04-24T06:24:27;7.97;;;6.05;;
52414;SDS011;38340;52.964;6.086;2023-04-24T06:26:53;8.88;;;6.88;;
52414;SDS011;38340;52.964;6.086;2023-04-24T06:29:19;8.02;;;6.43;;
52414;SDS011;38340;52.964;6.086;2023-04-24T06:31:45;7.57;;;6.65;;
52414;SDS011;38340;52.964;6.086;2023-04-24T06:34:10;9.43;;;6.80;;
52414;SDS011;38340;52.964;6.086;2023-04-24T06:36:36;8.30;;;6.85;;
52414;SDS011;38340;52.964;6.086;2023-04-24T06:39:02;9.32;;;6.70;;
52414;SDS011;38340;52.964;6.086;2023-04-24T06:41:28;7.70;;;5.53;;
52414;SDS011;38340;52.964;6.086;2023-04-24T06:43:54;5.47;;;4.90;;
52414;SDS011;38340;52.964;6.086;2023-04-24T06:46:20;8.35;;;4.70;;
52414;SDS011;38340;52.964;6.086;2023-04-24T06:48:48;8.68;;;5.20;;
52414;SDS011;38340;52.964;6.086;2023-04-24T06:51:15;5.70;;;4.78;;
52414;SDS011;38340;52.964;6.086;2023-04-24T06:53:43;7.10;;;4.30;;
52414;SDS011;38340;52.964;6.086;2023-04-24T06:56:08;6.38;;;4.20;;
52414;SDS011;38340;52.964;6.086;2023-04-24T06:58:34;9.40;;;4.70;;
52414;SDS011;38340;52.964;6.086;2023-04-24T07:01:00;6.60;;;4.25;;
52414;SDS011;38340;52.964;6.086;2023-04-24T07:03:26;6.13;;;4.03;;
52414;SDS011;38340;52.964;6.086;2023-04-24T07:05:51;8.20;;;3.67;;
52414;SDS011;38340;52.964;6.086;2023-04-24T07:08:18;6.70;;;4.13;;
52414;SDS011;38340;52.964;6.086;2023-04-24T07:10:45;6.05;;;4.60;;
52414;SDS011;38340;52.964;6.086;2023-04-24T07:13:11;7.55;;;4.90;;
52414;SDS011;38340;52.964;6.086;2023-04-24T07:15:36;8.10;;;5.97;;
52414;SDS011;38340;52.964;6.086;2023-04-24T07:18:02;8.73;;;6.47;;
52414;SDS011;38340;52.964;6.086;2023-04-24T07:20:28;14.32;;;7.90;;
52414;SDS011;38340;52.964;6.086;2023-04-24T07:22:54;11.15;;;8.23;;
52414;SDS011;38340;52.964;6.086;2023-04-24T07:25:20;14.65;;;9.45;;
52414;SDS011;38340;52.964;6.086;2023-04-24T07:27:45;16.17;;;10.25;;
52414;SDS011;38340;52.964;6.086;2023-04-24T07:30:11;18.17;;;10.00;;
52414;SDS011;38340;52.964;6.086;2023-04-24T07:32:37;28.25;;;13.85;;
52414;SDS011;38340;52.964;6.086;2023-04-24T07:35:02;24.27;;;13.27;;
52414;SDS011;38340;52.964;6.086;2023-04-24T07:37:28;18.98;;;12.73;;
52414;SDS011;38340;52.964;6.086;2023-04-24T07:39:54;22.35;;;14.02;;
52414;SDS011;38340;52.964;6.086;2023-04-24T07:42:20;21.05;;;12.20;;
52414;SDS011;38340;52.964;6.086;2023-04-24T07:44:46;18.42;;;11.35;;
52414;SDS011;38340;52.964;6.086;2023-04-24T07:47:12;14.98;;;10.52;;
52414;SDS011;38340;52.964;6.086;2023-04-24T07:49:43;22.35;;;11.75;;
52414;SDS011;38340;52.964;6.086;2023-04-24T07:52:09;17.98;;;10.90;;
52414;SDS011;38340;52.964;6.086;2023-04-24T07:54:35;20.73;;;14.50;;
52414;SDS011;38340;52.964;6.086;2023-04-24T07:57:02;24.33;;;13.35;;
52414;SDS011;38340;52.964;6.086;2023-04-24T07:59:28;21.55;;;15.65;;
52414;SDS011;38340;52.964;6.086;2023-04-24T08:01:54;25.65;;;16.00;;
52414;SDS011;38340;52.964;6.086;2023-04-24T08:04:20;22.73;;;15.07;;
52414;SDS011;38340;52.964;6.086;2023-04-24T08:06:47;24.98;;;16.48;;
52414;SDS011;38340;52.964;6.086;2023-04-24T08:09:13;25.50;;;17.05;;
52414;SDS011;38340;52.964;6.086;2023-04-24T08:11:39;24.50;;;16.05;;
52414;SDS011;38340;52.964;6.086;2023-04-24T08:14:04;27.17;;;16.42;;
52414;SDS011;38340;52.964;6.086;2023-04-24T08:16:31;21.52;;;13.82;;
52414;SDS011;38340;52.964;6.086;2023-04-24T08:18:58;28.73;;;16.02;;
52414;SDS011;38340;52.964;6.086;2023-04-24T08:21:23;24.30;;;13.82;;
52414;SDS011;38340;52.964;6.086;2023-04-24T08:23:51;21.55;;;14.85;;
52414;SDS011;38340;52.964;6.086;2023-04-24T08:26:16;19.00;;;13.35;;
52414;SDS011;38340;52.964;6.086;2023-04-24T08:28:42;14.88;;;12.07;;
52414;SDS011;38340;52.964;6.086;2023-04-24T08:31:08;15.70;;;9.88;;
52414;SDS011;38340;52.964;6.086;2023-04-24T08:33:34;17.55;;;10.70;;
52414;SDS011;38340;52.964;6.086;2023-04-24T08:36:03;15.82;;;10.85;;
52414;SDS011;38340;52.964;6.086;2023-04-24T08:38:30;16.80;;;11.02;;
52414;SDS011;38340;52.964;6.086;2023-04-24T08:40:57;11.75;;;9.73;;
52414;SDS011;38340;52.964;6.086;2023-04-24T08:43:24;15.57;;;10.00;;
52414;SDS011;38340;52.964;6.086;2023-04-24T08:45:51;14.07;;;8.82;;
52414;SDS011;38340;52.964;6.086;2023-04-24T08:48:18;15.95;;;9.05;;
52414;SDS011;38340;52.964;6.086;2023-04-24T08:50:43;12.45;;;9.32;;
52414;SDS011;38340;52.964;6.086;2023-04-24T08:53:10;14.07;;;8.70;;
52414;SDS011;38340;52.964;6.086;2023-04-24T08:55:37;11.98;;;8.75;;
52414;SDS011;38340;52.964;6.086;2023-04-24T08:58:03;16.42;;;10.85;;
52414;SDS011;38340;52.964;6.086;2023-04-24T09:00:29;16.33;;;9.68;;
52414;SDS011;38340;52.964;6.086;2023-04-24T09:02:55;11.18;;;9.10;;
52414;SDS011;38340;52.964;6.086;2023-04-24T09:05:22;16.60;;;9.82;;
52414;SDS011;38340;52.964;6.086;2023-04-24T09:07:54;11.77;;;8.57;;
52414;SDS011;38340;52.964;6.086;2023-04-24T09:10:24;15.38;;;8.70;;
52414;SDS011;38340;52.964;6.086;2023-04-24T09:12:51;17.52;;;9.23;;
52414;SDS011;38340;52.964;6.086;2023-04-24T09:15:20;14.23;;;8.40;;
52414;SDS011;38340;52.964;6.086;2023-04-24T09:17:46;12.38;;;8.13;;
52414;SDS011;38340;52.964;6.086;2023-04-24T09:20:12;12.20;;;7.18;;
52414;SDS011;38340;52.964;6.086;2023-04-24T09:22:38;14.23;;;7.20;;
52414;SDS011;38340;52.964;6.086;2023-04-24T09:25:07;12.15;;;7.03;;
52414;SDS011;38340;52.964;6.086;2023-04-24T09:27:34;11.60;;;6.35;;
52414;SDS011;38340;52.964;6.086;2023-04-24T09:30:00;23.15;;;7.13;;
52414;SDS011;38340;52.964;6.086;2023-04-24T09:32:27;11.00;;;5.97;;
52414;SDS011;38340;52.964;6.086;2023-04-24T09:35:04;8.20;;;5.63;;
52414;SDS011;38340;52.964;6.086;2023-04-24T09:37:36;10.23;;;6.03;;
52414;SDS011;38340;52.964;6.086;2023-04-24T09:40:13;9.05;;;5.88;;
52414;SDS011;38340;52.964;6.086;2023-04-24T09:42:44;9.13;;;6.00;;
52414;SDS011;38340;52.964;6.086;2023-04-24T09:45:11;13.43;;;6.00;;
52414;SDS011;38340;52.964;6.086;2023-04-24T09:47:37;11.27;;;6.15;;
52414;SDS011;38340;52.964;6.086;2023-04-24T09:50:10;11.80;;;6.50;;
52414;SDS011;38340;52.964;6.086;2023-04-24T09:52:47;13.25;;;6.38;;
52414;SDS011;38340;52.964;6.086;2023-04-24T09:55:22;10.27;;;6.18;;
52414;SDS011;38340;52.964;6.086;2023-04-24T10:00:18;11.38;;;5.45;;
52414;SDS011;38340;52.964;6.086;2023-04-24T10:02:53;17.20;;;6.95;;
52414;SDS011;38340;52.964;6.086;2023-04-24T10:05:23;12.10;;;5.30;;
52414;SDS011;38340;52.964;6.086;2023-04-24T10:07:56;11.80;;;6.00;;
52414;SDS011;38340;52.964;6.086;2023-04-24T10:10:33;9.30;;;5.40;;
52414;SDS011;38340;52.964;6.086;2023-04-24T10:13:02;9.95;;;5.65;;
52414;SDS011;38340;52.964;6.086;2023-04-24T10:15:28;6.60;;;4.95;;
52414;SDS011;38340;52.964;6.086;2023-04-24T10:17:55;12.35;;;5.05;;
52414;SDS011;38340;52.964;6.086;2023-04-24T10:20:27;15.30;;;5.10;;
52414;SDS011;38340;52.964;6.086;2023-04-24T10:22:55;10.52;;;4.90;;
52414;SDS011;38340;52.964;6.086;2023-04-24T10:25:28;10.13;;;5.15;;
52414;SDS011;38340;52.964;6.086;2023-04-24T10:27:56;11.20;;;4.70;;
52414;SDS011;38340;52.964;6.086;2023-04-24T10:30:26;11.02;;;5.13;;
52414;SDS011;38340;52.964;6.086;2023-04-24T10:32:53;8.70;;;5.30;;
52414;SDS011;38340;52.964;6.086;2023-04-24T10:35:19;8.25;;;4.80;;
52414;SDS011;38340;52.964;6.086;2023-04-24T10:38:04;12.77;;;4.88;;
52414;SDS011;38340;52.964;6.086;2023-04-24T10:40:36;9.98;;;4.22;;
52414;SDS011;38340;52.964;6.086;2023-04-24T10:43:02;13.00;;;4.97;;
52414;SDS011;38340;52.964;6.086;2023-04-24T10:45:31;10.60;;;4.15;;
52414;SDS011;38340;52.964;6.086;2023-04-24T10:48:01;12.00;;;5.63;;
52414;SDS011;38340;52.964;6.086;2023-04-24T10:50:45;12.88;;;4.90;;
52414;SDS011;38340;52.964;6.086;2023-04-24T10:53:13;10.70;;;4.30;;
52414;SDS011;38340;52.964;6.086;2023-04-24T10:58:14;10.80;;;3.55;;
52414;SDS011;38340;52.964;6.086;2023-04-24T11:00:41;7.13;;;3.70;;
52414;SDS011;38340;52.964;6.086;2023-04-24T11:03:27;9.82;;;3.97;;
52414;SDS011;38340;52.964;6.086;2023-04-24T11:05:55;5.88;;;3.67;;
52414;SDS011;38340;52.964;6.086;2023-04-24T11:08:49;10.75;;;4.03;;
52414;SDS011;38340;52.964;6.086;2023-04-24T11:11:17;9.82;;;3.75;;
52414;SDS011;38340;52.964;6.086;2023-04-24T11:16:27;9.60;;;4.13;;
52414;SDS011;38340;52.964;6.086;2023-04-24T11:21:58;8.23;;;3.95;;
52414;SDS011;38340;52.964;6.086;2023-04-24T11:24:39;11.35;;;4.15;;
52414;SDS011;38340;52.964;6.086;2023-04-24T11:27:16;10.77;;;4.13;;
52414;SDS011;38340;52.964;6.086;2023-04-24T11:34:47;9.02;;;4.03;;
52414;SDS011;38340;52.964;6.086;2023-04-24T11:37:14;6.03;;;3.38;;
52414;SDS011;38340;52.964;6.086;2023-04-24T11:39:40;8.43;;;3.22;;
52414;SDS011;38340;52.964;6.086;2023-04-24T11:42:06;6.18;;;3.45;;
52414;SDS011;38340;52.964;6.086;2023-04-24T11:44:33;7.53;;;3.53;;
52414;SDS011;38340;52.964;6.086;2023-04-24T11:47:02;6.05;;;3.47;;
52414;SDS011;38340;52.964;6.086;2023-04-24T11:49:29;5.95;;;3.10;;
52414;SDS011;38340;52.964;6.086;2023-04-24T11:51:55;4.97;;;3.08;;
52414;SDS011;38340;52.964;6.086;2023-04-24T11:54:21;5.57;;;3.00;;
52414;SDS011;38340;52.964;6.086;2023-04-24T11:56:47;3.72;;;2.75;;
52414;SDS011;38340;52.964;6.086;2023-04-24T11:59:14;3.58;;;2.83;;
52414;SDS011;38340;52.964;6.086;2023-04-24T12:01:46;6.78;;;3.15;;
52414;SDS011;38340;52.964;6.086;2023-04-24T12:04:12;4.40;;;2.65;;
52414;SDS011;38340;52.964;6.086;2023-04-24T12:06:38;4.82;;;2.80;;
52414;SDS011;38340;52.964;6.086;2023-04-24T12:09:04;5.60;;;2.90;;
52414;SDS011;38340;52.964;6.086;2023-04-24T12:11:30;4.72;;;2.95;;
52414;SDS011;38340;52.964;6.086;2023-04-24T12:13:56;5.95;;;2.70;;
52414;SDS011;38340;52.964;6.086;2023-04-24T12:16:22;6.47;;;3.00;;
52414;SDS011;38340;52.964;6.086;2023-04-24T12:18:50;5.90;;;3.25;;
52414;SDS011;38340;52.964;6.086;2023-04-24T12:21:22;5.97;;;3.15;;
52414;SDS011;38340;52.964;6.086;2023-04-24T12:23:53;4.25;;;3.00;;
52414;SDS011;38340;52.964;6.086;2023-04-24T12:26:20;8.18;;;3.28;;
52414;SDS011;38340;52.964;6.086;2023-04-24T12:28:48;5.80;;;3.35;;
52414;SDS011;38340;52.964;6.086;2023-04-24T12:31:17;5.47;;;3.08;;
52414;SDS011;38340;52.964;6.086;2023-04-24T12:33:46;6.10;;;3.00;;
52414;SDS011;38340;52.964;6.086;2023-04-24T12:36:11;7.25;;;3.20;;
52414;SDS011;38340;52.964;6.086;2023-04-24T12:38:38;6.47;;;2.97;;
52414;SDS011;38340;52.964;6.086;2023-04-24T12:41:07;7.30;;;3.10;;
52414;SDS011;38340;52.964;6.086;2023-04-24T12:43:35;8.07;;;3.15;;
52414;SDS011;38340;52.964;6.086;2023-04-24T12:46:01;7.20;;;3.10;;
52414;SDS011;38340;52.964;6.086;2023-04-24T12:48:28;6.90;;;2.88;;
52414;SDS011;38340;52.964;6.086;2023-04-24T12:50:54;5.15;;;2.88;;
52414;SDS011;38340;52.964;6.086;2023-04-24T12:53:21;5.28;;;2.80;;
52414;SDS011;38340;52.964;6.086;2023-04-24T12:55:47;6.55;;;2.83;;
52414;SDS011;38340;52.964;6.086;2023-04-24T12:58:20;6.25;;;3.10;;
52414;SDS011;38340;52.964;6.086;2023-04-24T13:00:46;7.32;;;3.20;;
52414;SDS011;38340;52.964;6.086;2023-04-24T13:03:13;5.28;;;3.20;;
52414;SDS011;38340;52.964;6.086;2023-04-24T13:05:38;6.40;;;3.13;;
52414;SDS011;38340;52.964;6.086;2023-04-24T13:08:04;4.07;;;2.65;;
52414;SDS011;38340;52.964;6.086;2023-04-24T13:10:30;4.65;;;2.70;;
52414;SDS011;38340;52.964;6.086;2023-04-24T13:12:56;5.70;;;3.47;;
52414;SDS011;38340;52.964;6.086;2023-04-24T13:15:22;7.32;;;2.85;;
52414;SDS011;38340;52.964;6.086;2023-04-24T13:17:48;8.38;;;3.17;;
52414;SDS011;38340;52.964;6.086;2023-04-24T13:20:15;7.68;;;3.00;;
52414;SDS011;38340;52.964;6.086;2023-04-24T13:22:42;9.73;;;3.33;;
52414;SDS011;38340;52.964;6.086;2023-04-24T13:25:08;4.97;;;3.03;;
52414;SDS011;38340;52.964;6.086;2023-04-24T13:27:34;8.95;;;3.45;;
52414;SDS011;38340;52.964;6.086;2023-04-24T13:30:00;5.10;;;2.80;;
52414;SDS011;38340;52.964;6.086;2023-04-24T13:32:25;9.32;;;3.17;;
52414;SDS011;38340;52.964;6.086;2023-04-24T13:34:52;7.60;;;3.78;;
52414;SDS011;38340;52.964;6.086;2023-04-24T13:37:18;8.35;;;3.28;;
52414;SDS011;38340;52.964;6.086;2023-04-24T13:39:44;7.07;;;3.72;;
52414;SDS011;38340;52.964;6.086;2023-04-24T13:42:09;10.00;;;3.88;;
52414;SDS011;38340;52.964;6.086;2023-04-24T13:44:35;8.15;;;3.83;;
52414;SDS011;38340;52.964;6.086;2023-04-24T13:47:02;9.43;;;3.60;;
52414;SDS011;38340;52.964;6.086;2023-04-24T13:49:28;8.43;;;3.60;;
52414;SDS011;38340;52.964;6.086;2023-04-24T13:51:55;12.27;;;4.65;;
52414;SDS011;38340;52.964;6.086;2023-04-24T13:54:21;9.93;;;3.80;;
52414;SDS011;38340;52.964;6.086;2023-04-24T13:56:48;17.45;;;4.78;;
52414;SDS011;38340;52.964;6.086;2023-04-24T13:59:14;10.52;;;4.15;;
52414;SDS011;38340;52.964;6.086;2023-04-24T14:01:40;10.13;;;4.28;;
52414;SDS011;38340;52.964;6.086;2023-04-24T14:04:06;13.57;;;4.93;;
52414;SDS011;38340;52.964;6.086;2023-04-24T14:06:31;10.13;;;4.40;;
52414;SDS011;38340;52.964;6.086;2023-04-24T14:08:57;12.45;;;4.85;;
52414;SDS011;38340;52.964;6.086;2023-04-24T14:11:23;14.65;;;4.32;;
52414;SDS011;38340;52.964;6.086;2023-04-24T14:13:49;9.13;;;3.97;;
52414;SDS011;38340;52.964;6.086;2023-04-24T14:16:15;14.07;;;4.70;;
52414;SDS011;38340;52.964;6.086;2023-04-24T14:18:40;9.00;;;3.70;;
52414;SDS011;38340;52.964;6.086;2023-04-24T14:21:06;8.55;;;3.78;;
52414;SDS011;38340;52.964;6.086;2023-04-24T14:23:32;9.15;;;3.63;;
52414;SDS011;38340;52.964;6.086;2023-04-24T14:25:58;8.90;;;3.97;;
52414;SDS011;38340;52.964;6.086;2023-04-24T14:28:24;7.68;;;4.15;;
52414;SDS011;38340;52.964;6.086;2023-04-24T14:30:51;8.50;;;4.30;;
52414;SDS011;38340;52.964;6.086;2023-04-24T14:33:17;7.32;;;3.80;;
52414;SDS011;38340;52.964;6.086;2023-04-24T14:35:43;14.85;;;4.65;;
52414;SDS011;38340;52.964;6.086;2023-04-24T14:38:10;13.52;;;6.13;;
52414;SDS011;38340;52.964;6.086;2023-04-24T14:40:36;11.73;;;5.13;;
52414;SDS011;38340;52.964;6.086;2023-04-24T14:43:02;16.77;;;5.50;;
52414;SDS011;38340;52.964;6.086;2023-04-24T14:45:28;8.68;;;5.00;;
52414;SDS011;38340;52.964;6.086;2023-04-24T14:47:54;11.40;;;5.18;;
52414;SDS011;38340;52.964;6.086;2023-04-24T14:50:21;17.85;;;5.35;;
52414;SDS011;38340;52.964;6.086;2023-04-24T14:52:46;12.77;;;5.00;;